createdAt,value
2022-12-18T00:01:51.876Z,52.90
2022-12-18T00:04:23.784Z,60.20
2022-12-18T00:06:52.391Z,58.90
2022-12-18T00:09:20.694Z,52.00
2022-12-18T00:11:49.272Z,51.00
2022-12-18T00:14:17.411Z,56.90
2022-12-18T00:16:47.500Z,52.30
2022-12-18T00:19:16.395Z,57.80
2022-12-18T00:21:44.938Z,51.20
2022-12-18T00:24:13.057Z,53.40
2022-12-18T00:26:40.982Z,52.20
2022-12-18T00:29:14.788Z,54.20
2022-12-18T00:31:44.989Z,50.30
2022-12-18T00:34:14.134Z,55.80
2022-12-18T00:36:42.444Z,47.20
2022-12-18T00:39:11.919Z,51.60
2022-12-18T00:41:58.290Z,48.50
2022-12-18T00:44:27.070Z,55.10
2022-12-18T00:46:55.143Z,51.10
2022-12-18T00:49:23.154Z,52.80
2022-12-18T00:51:51.136Z,56.70
2022-12-18T00:54:19.164Z,46.10
2022-12-18T00:56:50.268Z,48.80
2022-12-18T00:59:19.508Z,52.80
2022-12-18T01:01:48.228Z,46.30
2022-12-18T01:04:16.493Z,55.00
2022-12-18T01:06:47.087Z,46.40
2022-12-18T01:09:14.963Z,51.20
2022-12-18T01:11:42.936Z,55.50
2022-12-18T01:14:12.533Z,40.80
2022-12-18T01:16:40.613Z,49.10
2022-12-18T01:19:08.687Z,48.20
2022-12-18T01:21:36.668Z,52.60
2022-12-18T01:24:06.167Z,46.60
2022-12-18T01:26:35.309Z,52.20
2022-12-18T01:29:03.849Z,54.00
2022-12-18T01:31:34.387Z,47.00
2022-12-18T01:34:05.642Z,54.00
2022-12-18T01:36:37.296Z,52.60
2022-12-18T01:39:13.390Z,54.10
2022-12-18T01:42:02.116Z,53.20
2022-12-18T01:44:51.576Z,54.30
2022-12-18T01:47:45.569Z,51.90
2022-12-18T01:50:19.041Z,49.50
2022-12-18T01:52:56.746Z,46.40
2022-12-18T01:55:32.265Z,50.10
2022-12-18T01:58:01.428Z,45.30
2022-12-18T02:00:30.578Z,50.40
2022-12-18T02:02:58.613Z,46.60
2022-12-18T02:05:48.094Z,56.70
2022-12-18T02:08:26.153Z,49.90
2022-12-18T02:11:28.534Z,52.20
2022-12-18T02:14:10.224Z,53.90
2022-12-18T02:16:38.181Z,51.40
2022-12-18T02:19:21.962Z,51.50
2022-12-18T02:22:22.191Z,44.60
2022-12-18T02:25:15.124Z,57.40
2022-12-18T02:27:46.863Z,54.10
2022-12-18T02:30:16.329Z,52.10
2022-12-18T02:32:51.088Z,57.80
2022-12-18T02:35:26.346Z,57.60
2022-12-18T02:40:28.642Z,55.40
2022-12-18T02:43:04.207Z,60.00
2022-12-18T02:45:32.510Z,59.60
2022-12-18T02:48:00.853Z,52.80
2022-12-18T02:50:36.046Z,56.20
2022-12-18T02:53:29.506Z,57.20
2022-12-18T02:56:06.882Z,59.20
2022-12-18T02:58:55.021Z,58.00
2022-12-18T03:02:10.565Z,57.90
2022-12-18T03:04:52.724Z,49.40
2022-12-18T03:07:58.910Z,46.50
2022-12-18T03:10:31.686Z,47.40
2022-12-18T03:13:17.690Z,39.80
2022-12-18T03:15:50.627Z,42.10
2022-12-18T03:18:23.238Z,39.70
2022-12-18T03:20:57.752Z,41.30
2022-12-18T03:23:30.274Z,42.30
2022-12-18T03:26:07.644Z,42.30
2022-12-18T03:28:43.315Z,42.70
2022-12-18T03:31:14.752Z,40.00
2022-12-18T03:33:48.153Z,46.90
2022-12-18T03:36:16.456Z,49.10
2022-12-18T03:38:44.335Z,48.60
2022-12-18T03:41:24.381Z,43.90
2022-12-18T03:44:27.954Z,50.50
2022-12-18T03:47:13.670Z,48.20
2022-12-18T03:49:57.507Z,48.20
2022-12-18T03:52:33.937Z,51.20
2022-12-18T03:55:04.339Z,52.70
2022-12-18T03:57:34.158Z,51.10
2022-12-18T04:00:10.871Z,49.30
2022-12-18T04:02:57.936Z,54.40
2022-12-18T04:05:36.242Z,50.50
2022-12-18T04:08:05.664Z,53.30
2022-12-18T04:10:38.402Z,55.40
2022-12-18T04:13:06.482Z,53.30
2022-12-18T04:15:38.892Z,59.60
2022-12-18T04:18:08.762Z,54.60
2022-12-18T04:20:42.815Z,55.90
2022-12-18T04:23:12.423Z,54.70
2022-12-18T04:25:40.586Z,54.10
2022-12-18T04:28:15.019Z,53.30
2022-12-18T04:30:43.823Z,49.00
2022-12-18T04:33:12.920Z,51.40
2022-12-18T04:35:44.571Z,47.70
2022-12-18T04:38:12.578Z,55.60
2022-12-18T04:40:41.351Z,49.10
2022-12-18T04:43:14.127Z,52.30
2022-12-18T04:45:42.084Z,50.50
2022-12-18T04:48:10.054Z,55.20
2022-12-18T04:50:38.691Z,51.30
2022-12-18T04:53:06.695Z,53.40
2022-12-18T04:55:34.830Z,56.40
2022-12-18T04:58:02.726Z,48.10
2022-12-18T05:00:30.706Z,51.40
2022-12-18T05:02:58.576Z,51.20
2022-12-18T05:05:26.725Z,52.80
2022-12-18T05:07:54.575Z,51.20
2022-12-18T05:10:22.780Z,48.40
2022-12-18T05:13:01.229Z,50.80
2022-12-18T05:15:31.896Z,52.90
2022-12-18T05:18:00.741Z,47.70
2022-12-18T05:20:29.237Z,48.20
2022-12-18T05:22:57.417Z,51.80
2022-12-18T05:25:25.855Z,46.70
2022-12-18T05:27:53.788Z,49.20
2022-12-18T05:30:21.797Z,43.90
2022-12-18T05:32:49.708Z,50.60
2022-12-18T05:35:17.842Z,49.40
2022-12-18T05:37:46.155Z,50.50
2022-12-18T05:40:14.636Z,52.80
2022-12-18T05:42:42.493Z,57.90
2022-12-18T05:45:10.501Z,59.40
2022-12-18T05:47:38.429Z,54.40
2022-12-18T05:50:07.988Z,47.20
2022-12-18T05:52:35.861Z,58.80
2022-12-18T05:55:03.944Z,55.50
2022-12-18T05:57:31.857Z,56.80
2022-12-18T05:59:59.799Z,60.70
2022-12-18T06:02:27.801Z,52.60
2022-12-18T06:04:56.051Z,57.40
2022-12-18T06:07:23.972Z,55.10
2022-12-18T06:09:51.838Z,56.30
2022-12-18T06:12:19.743Z,58.70
2022-12-18T06:14:47.640Z,54.50
2022-12-18T06:17:15.455Z,58.60
2022-12-18T06:19:43.361Z,53.30
2022-12-18T06:22:11.264Z,52.40
2022-12-18T06:24:39.127Z,47.90
2022-12-18T06:27:06.985Z,54.60
2022-12-18T06:29:34.971Z,55.50
2022-12-18T06:32:02.853Z,50.50
2022-12-18T06:34:33.669Z,57.40
2022-12-18T06:37:01.503Z,63.10
2022-12-18T06:39:29.502Z,64.10
2022-12-18T06:41:57.447Z,52.00
2022-12-18T06:44:25.415Z,56.70
2022-12-18T06:46:53.371Z,55.30
2022-12-18T06:49:21.305Z,58.70
2022-12-18T06:51:49.302Z,57.40
2022-12-18T06:54:17.852Z,60.50
2022-12-18T06:56:48.793Z,59.20
2022-12-18T06:59:16.958Z,61.10
2022-12-18T07:01:45.556Z,58.80
2022-12-18T07:04:13.787Z,57.70
2022-12-18T07:06:41.786Z,54.30
2022-12-18T07:09:09.692Z,57.30
2022-12-18T07:11:37.633Z,56.40
2022-12-18T07:14:05.501Z,55.90
2022-12-18T07:16:33.581Z,53.90
2022-12-18T07:19:01.620Z,59.60
2022-12-18T07:21:29.700Z,55.00
2022-12-18T07:23:57.550Z,58.50
2022-12-18T07:26:25.409Z,52.40
2022-12-18T07:28:58.573Z,61.10
2022-12-18T07:31:28.145Z,43.10
2022-12-18T07:33:56.721Z,50.70
2022-12-18T07:36:25.258Z,50.50
2022-12-18T07:38:54.065Z,56.20
2022-12-18T07:41:21.959Z,51.40
2022-12-18T07:43:50.053Z,51.60
2022-12-18T07:46:20.816Z,42.80
2022-12-18T07:48:49.821Z,38.90
2022-12-18T07:51:19.493Z,37.50
2022-12-18T07:53:49.322Z,41.10
2022-12-18T07:56:30.426Z,37.20
2022-12-18T07:59:00.327Z,45.00
2022-12-18T08:01:28.684Z,36.60
2022-12-18T08:03:58.734Z,37.60
2022-12-18T08:06:26.979Z,41.70
2022-12-18T08:08:56.467Z,34.60
2022-12-18T08:11:26.708Z,43.20
2022-12-18T08:13:55.217Z,35.90
2022-12-18T08:16:24.031Z,43.10
2022-12-18T08:18:54.203Z,40.90
2022-12-18T08:21:28.148Z,40.30
2022-12-18T08:23:58.541Z,40.30
2022-12-18T08:26:29.426Z,44.20
2022-12-18T08:28:59.044Z,44.80
2022-12-18T08:31:28.855Z,38.20
2022-12-18T08:33:57.873Z,38.60
2022-12-18T08:36:26.057Z,35.80
2022-12-18T08:38:55.670Z,40.10
2022-12-18T08:41:24.201Z,46.70
2022-12-18T08:44:11.006Z,45.10
2022-12-18T08:46:41.205Z,41.90
2022-12-18T08:49:11.404Z,44.70
2022-12-18T08:51:40.135Z,36.00
2022-12-18T08:54:10.494Z,39.00
2022-12-18T08:56:38.455Z,37.90
2022-12-18T08:59:06.554Z,36.80
2022-12-18T09:01:35.302Z,37.90
2022-12-18T09:04:04.058Z,37.20
2022-12-18T09:06:32.758Z,37.70
2022-12-18T09:09:01.323Z,34.10
2022-12-18T09:11:33.100Z,34.90
2022-12-18T09:14:02.479Z,35.40
2022-12-18T09:16:32.718Z,31.50
2022-12-18T09:19:01.189Z,31.80
2022-12-18T09:21:34.258Z,32.60
2022-12-18T09:24:08.960Z,27.80
2022-12-18T09:26:38.544Z,34.80
2022-12-18T09:29:08.438Z,32.20
2022-12-18T09:31:37.839Z,31.30
2022-12-18T09:34:05.718Z,28.50
2022-12-18T09:36:34.373Z,37.70
2022-12-18T09:39:06.449Z,38.30
2022-12-18T09:41:54.363Z,37.00
2022-12-18T09:44:24.836Z,31.90
2022-12-18T09:47:01.750Z,30.60
2022-12-18T09:49:35.656Z,30.20
2022-12-18T09:52:30.906Z,29.00
2022-12-18T09:55:11.797Z,31.10
2022-12-18T09:57:47.002Z,30.10
2022-12-18T10:00:22.250Z,27.90
2022-12-18T10:02:54.129Z,24.30
2022-12-18T10:05:37.320Z,30.00
2022-12-18T10:08:37.446Z,21.70
2022-12-18T10:11:28.555Z,24.40
2022-12-18T10:14:20.474Z,25.90
2022-12-18T10:17:12.648Z,24.40
2022-12-18T10:19:50.171Z,26.20
2022-12-18T10:22:21.255Z,26.80
2022-12-18T10:24:59.277Z,25.70
2022-12-18T10:27:29.691Z,25.40
2022-12-18T10:29:58.667Z,29.20
2022-12-18T10:32:30.032Z,21.10
2022-12-18T10:35:02.751Z,25.10
2022-12-18T10:38:01.643Z,22.90
2022-12-18T10:40:29.877Z,21.00
2022-12-18T10:43:20.149Z,20.10
2022-12-18T10:46:21.683Z,19.60
2022-12-18T10:48:54.658Z,19.50
2022-12-18T10:51:31.534Z,20.90
2022-12-18T10:54:03.082Z,19.50
2022-12-18T10:56:35.853Z,19.20
2022-12-18T10:59:12.995Z,16.50
2022-12-18T11:01:57.929Z,18.70
2022-12-18T11:04:28.808Z,18.90
2022-12-18T11:07:08.606Z,20.40
2022-12-18T11:58:38.208Z,17.10
2022-12-18T12:01:06.188Z,16.40
2022-12-18T12:03:46.190Z,20.10
2022-12-18T12:06:35.958Z,21.20
2022-12-18T12:09:18.967Z,22.30
2022-12-18T12:12:16.122Z,23.40
2022-12-18T12:15:11.328Z,21.20
2022-12-18T12:17:51.333Z,17.80
2022-12-18T12:20:39.177Z,16.80
2022-12-18T12:23:27.998Z,16.80
2022-12-18T12:26:11.156Z,16.30
2022-12-18T12:29:20.984Z,17.90
2022-12-18T12:32:04.497Z,16.50
2022-12-18T12:35:11.756Z,21.10
2022-12-18T12:38:01.559Z,17.10
2022-12-18T12:40:54.909Z,23.90
2022-12-18T12:43:49.471Z,18.70
2022-12-18T12:46:23.854Z,14.50
2022-12-18T12:49:02.812Z,19.00
2022-12-18T12:51:37.972Z,17.20
2022-12-18T12:54:14.046Z,14.80
2022-12-18T12:57:12.050Z,16.20
2022-12-18T13:00:04.555Z,16.40
2022-12-18T13:02:57.850Z,22.80
2022-12-18T13:05:56.082Z,20.60
2022-12-18T13:08:24.041Z,17.40
2022-12-18T13:11:13.819Z,21.70
2022-12-18T13:13:56.754Z,26.40
2022-12-18T13:16:30.639Z,18.60
2022-12-18T13:18:59.866Z,25.90
2022-12-18T13:21:34.150Z,22.60
2022-12-18T13:24:28.243Z,23.90
2022-12-18T13:26:56.262Z,17.40
2022-12-18T13:29:45.007Z,17.40
2022-12-18T13:32:26.155Z,21.20
2022-12-18T13:35:23.109Z,17.80
2022-12-18T13:37:54.079Z,23.40
2022-12-18T13:40:40.545Z,26.90
2022-12-18T13:43:33.502Z,24.80
2022-12-18T13:46:23.298Z,23.60
2022-12-18T13:49:15.128Z,25.00
2022-12-18T13:51:47.717Z,23.00
2022-12-18T13:54:41.322Z,20.30
2022-12-18T13:57:31.372Z,25.60
2022-12-18T14:00:29.907Z,33.80
2022-12-18T14:02:59.572Z,33.60
2022-12-18T14:05:35.107Z,29.20
2022-12-18T14:08:11.219Z,30.20
2022-12-18T14:10:48.569Z,29.80
2022-12-18T14:13:36.112Z,29.00
2022-12-18T14:16:07.419Z,37.20
2022-12-18T14:18:44.367Z,30.60
2022-12-18T14:21:26.644Z,38.40
2022-12-18T14:24:27.192Z,32.60
2022-12-18T14:26:55.200Z,33.30
2022-12-18T14:29:27.132Z,35.20
2022-12-18T14:32:18.269Z,33.70
2022-12-18T14:34:55.192Z,42.10
2022-12-18T14:37:28.060Z,39.10
2022-12-18T14:40:08.682Z,41.90
2022-12-18T14:42:38.540Z,43.40
2022-12-18T14:45:43.308Z,44.20
2022-12-18T14:48:48.601Z,46.80
2022-12-18T14:51:20.878Z,39.60
2022-12-18T14:53:55.094Z,41.90
2022-12-18T14:56:38.547Z,39.30
2022-12-18T14:59:24.762Z,37.50
2022-12-18T15:02:02.407Z,38.20
2022-12-18T15:04:39.965Z,40.20
2022-12-18T15:07:21.639Z,40.20
2022-12-18T15:10:13.211Z,45.70
2022-12-18T15:12:45.534Z,44.10
2022-12-18T15:15:38.540Z,40.90
2022-12-18T15:18:09.652Z,43.50
2022-12-18T15:20:47.444Z,44.30
2022-12-18T15:23:24.337Z,46.60
2022-12-18T15:26:11.672Z,46.30
2022-12-18T15:28:51.155Z,52.60
2022-12-18T15:31:38.877Z,43.50
2022-12-18T15:34:22.384Z,44.70
2022-12-18T15:36:52.211Z,47.20
2022-12-18T15:39:20.125Z,46.10
2022-12-18T15:42:06.862Z,50.60
2022-12-18T15:44:35.069Z,56.40
2022-12-18T15:47:03.059Z,55.30
2022-12-18T15:49:30.938Z,49.00
2022-12-18T15:52:01.019Z,42.10
2022-12-18T15:54:47.727Z,45.10
2022-12-18T15:57:24.764Z,49.10
2022-12-18T15:59:55.117Z,44.90
2022-12-18T16:02:23.995Z,48.00
2022-12-18T16:04:53.315Z,44.50
2022-12-18T16:07:24.554Z,41.90
2022-12-18T16:09:53.697Z,43.90
2022-12-18T16:12:24.063Z,47.90
2022-12-18T16:14:52.053Z,51.40
2022-12-18T16:17:20.429Z,48.10
2022-12-18T16:19:48.352Z,47.10
2022-12-18T16:22:25.209Z,44.80
2022-12-18T16:24:54.516Z,54.70
2022-12-18T16:27:23.732Z,50.30
2022-12-18T16:29:52.114Z,60.60
2022-12-18T16:32:22.406Z,63.90
2022-12-18T16:35:01.530Z,54.40
2022-12-18T16:37:29.575Z,58.20
2022-12-18T16:39:57.450Z,53.20
2022-12-18T16:42:25.333Z,52.00
2022-12-18T16:44:55.007Z,46.50
2022-12-18T16:47:22.949Z,46.70
2022-12-18T16:49:52.942Z,49.50
2022-12-18T16:52:22.980Z,49.60
2022-12-18T16:54:51.210Z,44.50
2022-12-18T16:57:21.087Z,47.40
2022-12-18T16:59:53.804Z,43.20
2022-12-18T17:02:24.726Z,38.60
2022-12-18T17:04:58.295Z,45.10
2022-12-18T17:07:28.259Z,46.20
2022-12-18T17:09:57.237Z,47.60
2022-12-18T17:12:26.774Z,51.80
2022-12-18T17:14:54.674Z,44.90
2022-12-18T17:17:23.798Z,51.00
2022-12-18T17:19:52.907Z,49.50
2022-12-18T17:22:23.446Z,51.30
2022-12-18T17:24:51.581Z,44.70
2022-12-18T17:27:19.666Z,50.60
2022-12-18T17:29:48.833Z,47.20
2022-12-18T17:32:18.255Z,46.70
2022-12-18T17:34:46.658Z,47.80
2022-12-18T17:37:15.484Z,51.00
2022-12-18T17:39:43.406Z,52.40
2022-12-18T17:42:14.916Z,56.50
2022-12-18T17:44:44.327Z,52.90
2022-12-18T17:47:13.677Z,53.90
2022-12-18T17:49:42.078Z,57.90
2022-12-18T17:52:10.459Z,55.10
2022-12-18T17:54:41.481Z,55.60
2022-12-18T17:57:10.478Z,59.40
2022-12-18T17:59:38.563Z,54.80
2022-12-18T18:02:07.381Z,56.10
2022-12-18T18:04:36.469Z,57.30
2022-12-18T18:07:04.613Z,55.30
2022-12-18T18:09:32.724Z,49.30
2022-12-18T18:12:19.282Z,53.90
2022-12-18T18:14:47.386Z,53.90
2022-12-18T18:17:15.621Z,60.40
2022-12-18T18:19:44.166Z,58.00
2022-12-18T18:22:15.902Z,55.90
2022-12-18T18:24:46.941Z,55.80
2022-12-18T18:27:15.279Z,53.50
2022-12-18T18:29:43.394Z,58.00
2022-12-18T18:32:11.358Z,58.40
2022-12-18T18:34:42.289Z,53.60
2022-12-18T18:37:10.587Z,63.90
2022-12-18T18:39:38.385Z,70.50
2022-12-18T18:42:06.487Z,58.10
2022-12-18T18:44:35.294Z,62.50
2022-12-18T18:47:03.607Z,58.90
2022-12-18T18:49:34.599Z,58.80
2022-12-18T18:52:02.871Z,56.50
2022-12-18T18:54:31.149Z,59.10
2022-12-18T18:59:49.575Z,60.70
2022-12-18T19:02:18.008Z,61.30
2022-12-18T19:04:47.007Z,66.10
2022-12-18T19:07:29.981Z,61.10
2022-12-18T19:10:05.137Z,62.60
2022-12-18T19:12:53.430Z,68.20
2022-12-18T19:15:23.211Z,64.30
2022-12-18T19:17:51.561Z,58.10
2022-12-18T19:20:19.534Z,60.70
2022-12-18T19:22:48.577Z,59.10
2022-12-18T19:28:13.539Z,58.70
2022-12-18T19:30:50.905Z,59.20
2022-12-18T19:33:42.433Z,61.60
2022-12-18T19:36:21.380Z,60.60
2022-12-18T19:38:51.063Z,65.20
2022-12-18T19:41:20.186Z,69.90
2022-12-18T19:43:50.029Z,72.00
2022-12-18T19:46:20.606Z,61.90
2022-12-18T19:48:49.488Z,65.20
2022-12-18T19:51:20.307Z,68.80
2022-12-18T19:53:49.861Z,68.20
2022-12-18T19:56:23.543Z,71.30
2022-12-18T19:58:52.690Z,88.00
2022-12-18T20:01:22.294Z,86.50
2022-12-18T20:03:52.369Z,104.20
2022-12-18T20:06:25.682Z,93.40
2022-12-18T20:09:00.060Z,89.00
2022-12-18T20:11:41.475Z,78.80
2022-12-18T20:14:12.198Z,75.00
2022-12-18T20:16:40.796Z,66.10
2022-12-18T20:19:10.929Z,64.90
2022-12-18T20:21:39.404Z,62.00
2022-12-18T20:24:08.762Z,65.80
2022-12-18T20:26:36.959Z,67.30
2022-12-18T20:29:05.083Z,72.00
2022-12-18T20:31:33.224Z,62.60
2022-12-18T20:34:02.638Z,52.20
2022-12-18T20:36:34.256Z,54.60
2022-12-18T20:39:07.655Z,51.60
2022-12-18T20:41:39.263Z,59.90
2022-12-18T20:44:21.800Z,51.00
2022-12-18T20:46:54.773Z,47.20
2022-12-18T20:49:24.348Z,51.40
2022-12-18T20:51:53.982Z,52.70
2022-12-18T20:54:23.746Z,53.80
2022-12-18T20:56:52.105Z,48.00
2022-12-18T20:59:20.802Z,54.00
2022-12-18T21:01:49.715Z,48.20
2022-12-18T21:04:19.281Z,48.80
2022-12-18T21:06:57.793Z,52.50
2022-12-18T21:09:30.352Z,53.30
2022-12-18T21:12:40.283Z,55.30
2022-12-18T21:15:13.362Z,49.90
2022-12-18T21:17:45.056Z,54.60
2022-12-18T21:20:17.505Z,54.50
2022-12-18T21:22:47.237Z,52.90
2022-12-18T21:25:15.232Z,60.20
2022-12-18T21:27:43.180Z,58.40
2022-12-18T21:30:15.044Z,59.40
2022-12-18T21:32:43.142Z,57.50
2022-12-18T21:35:11.066Z,58.20
2022-12-18T21:37:39.135Z,61.70
2022-12-18T21:40:08.055Z,55.50
2022-12-18T21:42:54.521Z,63.80
2022-12-18T21:45:22.398Z,67.80
2022-12-18T21:47:50.384Z,55.80
2022-12-18T21:50:18.338Z,64.60
2022-12-18T21:52:46.353Z,65.20
2022-12-18T21:55:14.301Z,56.60
2022-12-18T21:57:42.224Z,60.10
2022-12-18T22:00:18.574Z,52.50
2022-12-18T22:03:17.645Z,60.20
2022-12-18T22:05:37.794Z,53.20
2022-12-18T22:08:07.058Z,65.70
2022-12-18T22:10:36.320Z,66.30
2022-12-18T22:13:05.787Z,67.40
2022-12-18T22:15:33.902Z,73.40
2022-12-18T22:18:02.077Z,65.80
2022-12-18T22:20:30.248Z,68.60
2022-12-18T22:22:59.048Z,70.40
2022-12-18T22:25:32.364Z,76.00
2022-12-18T22:28:22.685Z,86.60
2022-12-18T22:30:50.670Z,85.60
2022-12-18T22:33:25.863Z,82.70
2022-12-18T22:35:53.833Z,82.70
2022-12-18T22:38:21.656Z,81.60
2022-12-18T22:40:49.546Z,69.60
2022-12-18T22:43:17.750Z,76.10
2022-12-18T22:45:47.455Z,74.50
2022-12-18T22:48:15.572Z,74.20
2022-12-18T22:50:44.555Z,68.10
2022-12-18T22:53:12.482Z,71.20
2022-12-18T22:55:40.343Z,67.60
2022-12-18T22:58:08.224Z,66.50
2022-12-18T23:00:36.085Z,59.20
2022-12-18T23:03:04.938Z,59.30
2022-12-18T23:05:35.498Z,64.00
2022-12-18T23:08:03.415Z,64.90
2022-12-18T23:10:31.268Z,63.40
2022-12-18T23:12:59.134Z,56.20
2022-12-18T23:15:28.511Z,55.90
2022-12-18T23:17:58.874Z,59.60
2022-12-18T23:20:28.315Z,58.20
2022-12-18T23:22:56.294Z,62.30
2022-12-18T23:25:24.355Z,59.00
2022-12-18T23:27:52.362Z,59.80
2022-12-18T23:30:20.339Z,71.10
2022-12-18T23:32:48.346Z,65.90
2022-12-18T23:35:17.244Z,64.10
2022-12-18T23:37:59.382Z,61.50
2022-12-18T23:40:29.645Z,56.90
2022-12-18T23:42:59.148Z,66.70
2022-12-18T23:45:27.077Z,64.00
2022-12-18T23:47:54.902Z,66.80
2022-12-18T23:50:29.026Z,68.60
2022-12-18T23:53:04.592Z,64.80
2022-12-18T23:55:39.754Z,65.30
2022-12-18T23:58:14.942Z,64.80
